Time;durP1;ratioP1;P1;durP2;ratioP2;P2;SDS_P1;SDS_P2;PMS_P1;PMS_P2;Temp;Humidity;BMP_temperature;BMP_pressure;BME280_temperature;BME280_humidity;BME280_pressure;Samples;Min_cycle;Max_cycle;Signal;HPM_P1;HPM_P2
2021/01/02 00:00:49;;;;;;;11.37;9.77;;;3.60;91.90;;;;;;5090531;28;20205;-89
2021/01/02 00:03:28;;;;;;;9.87;8.83;;;3.60;91.40;;;;;;5091104;28;20178;-89
2021/01/02 00:06:08;;;;;;;10.00;9.00;;;3.60;91.00;;;;;;5125749;28;20163;-89
2021/01/02 00:08:38;;;;;;;10.97;9.87;;;3.70;90.80;;;;;;5107432;28;20289;-89
2021/01/02 00:11:29;;;;;;;9.43;8.53;;;3.70;90.40;;;;;;5091088;28;20186;-89
2021/01/02 00:14:13;;;;;;;10.77;9.70;;;3.70;90.50;;;;;;5092557;28;20194;-90
2021/01/02 00:17:02;;;;;;;10.03;8.90;;;3.70;90.60;;;;;;5087474;28;20187;-89
2021/01/02 00:19:43;;;;;;;10.73;8.53;;;3.60;91.20;;;;;;5105421;28;20203;-90
2021/01/02 00:22:11;;;;;;;10.43;9.33;;;3.50;91.90;;;;;;5105676;28;20173;-90
2021/01/02 00:24:40;;;;;;;13.33;10.57;;;3.60;91.10;;;;;;5087666;28;20226;-90
2021/01/02 00:27:19;;;;;;;12.27;10.93;;;3.60;90.60;;;;;;5108149;28;20171;-88
2021/01/02 00:30:09;;;;;;;12.43;10.63;;;3.60;90.70;;;;;;5109650;28;20207;-90
2021/01/02 00:32:49;;;;;;;11.63;10.43;;;3.60;90.70;;;;;;5109635;28;20167;-89
2021/01/02 00:35:21;;;;;;;11.37;10.27;;;3.50;91.40;;;;;;5108914;28;20181;-89
2021/01/02 00:38:00;;;;;;;11.10;9.97;;;3.50;92.10;;;;;;5090902;28;20195;-89
2021/01/02 00:40:27;;;;;;;11.23;10.03;;;3.50;92.60;;;;;;5109261;28;20259;-89
2021/01/02 00:42:53;;;;;;;10.93;9.83;;;3.60;92.70;;;;;;5126443;28;20178;-89
2021/01/02 00:45:24;;;;;;;10.30;9.30;;;3.70;91.60;;;;;;5110475;28;20221;-89
2021/01/02 00:47:51;;;;;;;12.27;10.03;;;3.70;90.90;;;;;;5129728;28;20183;-90
2021/01/02 00:50:19;;;;;;;11.73;9.70;;;3.70;90.70;;;;;;5128824;28;20209;-90
2021/01/02 00:52:52;;;;;;;10.10;9.07;;;3.70;90.60;;;;;;5110886;28;20213;-89
2021/01/02 00:55:24;;;;;;;11.20;9.40;;;3.60;91.50;;;;;;5110705;28;20186;-89
2021/01/02 00:57:50;;;;;;;10.67;9.50;;;3.70;91.60;;;;;;5128919;28;20182;-89
2021/01/02 01:00:18;;;;;;;10.63;9.53;;;3.70;90.80;;;;;;5128633;28;20276;-89
2021/01/02 01:02:57;;;;;;;11.37;10.20;;;3.80;90.70;;;;;;5111328;28;20213;-89
2021/01/02 01:05:24;;;;;;;11.47;10.20;;;3.70;90.30;;;;;;5129450;28;20223;-90
2021/01/02 01:07:54;;;;;;;11.27;10.07;;;3.70;90.70;;;;;;5128931;28;20174;-90
2021/01/02 01:10:23;;;;;;;11.37;10.17;;;3.70;91.00;;;;;;5128842;28;20201;-89
2021/01/02 01:12:59;;;;;;;12.07;10.83;;;3.70;90.70;;;;;;5110701;28;20182;-90
2021/01/02 01:15:25;;;;;;;12.10;10.90;;;3.70;90.60;;;;;;5093115;28;20205;-89
2021/01/02 01:18:03;;;;;;;13.23;11.37;;;3.60;90.90;;;;;;5110472;28;20184;-89
2021/01/02 01:20:30;;;;;;;13.03;11.63;;;3.60;91.00;;;;;;5109885;28;20182;-89
2021/01/02 01:23:25;;;;;;;12.63;11.33;;;3.60;91.00;;;;;;5110285;28;20215;-89
2021/01/02 01:26:15;;;;;;;13.90;12.50;;;3.60;91.00;;;;;;5110089;28;20186;-89
2021/01/02 01:28:45;;;;;;;14.43;12.93;;;3.60;91.30;;;;;;5109507;28;20202;-89
2021/01/02 01:31:16;;;;;;;12.83;11.43;;;3.50;91.40;;;;;;5093727;28;20208;-90
2021/01/02 01:33:50;;;;;;;16.27;12.67;;;3.40;91.80;;;;;;5110468;28;20178;-89
2021/01/02 01:36:20;;;;;;;13.03;11.57;;;3.50;91.90;;;;;;5093180;28;20181;-89
2021/01/02 01:38:54;;;;;;;13.13;11.73;;;3.40;92.40;;;;;;5109784;28;20202;-89
2021/01/02 01:41:36;;;;;;;12.67;11.20;;;3.50;92.70;;;;;;5093128;28;20185;-89
2021/01/02 01:44:05;;;;;;;12.47;11.17;;;3.50;92.60;;;;;;5110030;28;20198;-89
2021/01/02 01:46:42;;;;;;;13.87;11.77;;;3.50;92.40;;;;;;5110659;28;20183;-91
2021/01/02 01:49:18;;;;;;;12.87;11.40;;;3.60;92.10;;;;;;5110151;28;20225;-89
2021/01/02 01:52:03;;;;;;;12.77;11.27;;;3.60;91.70;;;;;;5128255;28;20159;-89
2021/01/02 01:55:04;;;;;;;12.67;11.20;;;3.50;92.70;;;;;;5109968;28;20174;-88
2021/01/02 01:57:37;;;;;;;12.73;11.37;;;3.60;92.30;;;;;;5109833;28;20184;-89
2021/01/02 02:00:18;;;;;;;13.40;11.47;;;3.70;91.90;;;;;;5110299;28;20206;-89
2021/01/02 02:02:47;;;;;;;13.87;11.40;;;3.70;91.90;;;;;;5128177;28;20185;-89
2021/01/02 02:05:16;;;;;;;13.23;11.83;;;3.70;90.90;;;;;;5127727;28;20217;-89
2021/01/02 02:08:02;;;;;;;13.37;11.63;;;3.60;91.10;;;;;;5127467;28;20174;-89
2021/01/02 02:10:29;;;;;;;15.60;13.20;;;3.50;91.50;;;;;;5127813;28;20218;-89
2021/01/02 02:12:56;;;;;;;12.03;10.83;;;3.50;92.00;;;;;;5109241;28;20256;-89
2021/01/02 02:15:24;;;;;;;14.27;11.77;;;3.30;92.50;;;;;;5109683;28;20173;-90
2021/01/02 02:18:14;;;;;;;13.83;11.03;;;3.30;92.90;;;;;;5127853;28;20193;-89
2021/01/02 02:20:50;;;;;;;13.50;11.87;;;3.30;93.10;;;;;;5127106;28;20205;-89
2021/01/02 02:23:34;;;;;;;14.80;13.20;;;3.30;93.30;;;;;;5127716;28;20151;-89
2021/01/02 02:26:10;;;;;;;15.83;12.67;;;3.30;93.50;;;;;;5127629;28;20532;-89
2021/01/02 02:29:11;;;;;;;13.33;11.93;;;3.30;93.40;;;;;;5108956;28;20305;-89
2021/01/02 02:31:45;;;;;;;14.37;12.70;;;3.40;93.20;;;;;;5093472;28;20195;-90
2021/01/02 02:34:12;;;;;;;16.30;12.93;;;3.40;93.70;;;;;;5102966;28;20179;-89
2021/01/02 02:36:39;;;;;;;17.50;14.60;;;3.30;93.80;;;;;;5105059;28;20183;-89
2021/01/02 02:39:13;;;;;;;20.43;15.00;;;3.40;93.40;;;;;;5104811;28;20195;-89
2021/01/02 02:41:42;;;;;;;21.17;16.20;;;3.40;93.30;;;;;;5105793;28;20184;-89
2021/01/02 02:44:09;;;;;;;22.63;16.33;;;3.40;93.30;;;;;;5086501;28;20565;-89
2021/01/02 02:46:40;;;;;;;20.80;17.00;;;3.40;93.70;;;;;;5106579;28;20179;-89
2021/01/02 02:49:07;;;;;;;22.33;16.60;;;3.40;93.40;;;;;;5070195;28;20195;-88
2021/01/02 02:51:54;;;;;;;24.40;18.37;;;3.40;93.70;;;;;;5104047;28;20178;-89
2021/01/02 02:54:23;;;;;;;26.77;19.77;;;3.40;92.90;;;;;;5083897;28;20230;-89
2021/01/02 02:56:49;;;;;;;23.23;18.23;;;3.50;92.50;;;;;;5101366;28;20213;-89
2021/01/02 02:59:15;;;;;;;26.57;19.97;;;3.50;92.80;;;;;;5101036;28;20199;-89
2021/01/02 03:01:40;;;;;;;26.67;19.77;;;3.50;93.00;;;;;;5084922;28;20218;-89
2021/01/02 03:04:06;;;;;;;24.70;18.33;;;3.60;92.30;;;;;;5095744;28;20232;-89
2021/01/02 03:06:32;;;;;;;28.20;19.57;;;3.60;92.10;;;;;;5123249;28;20265;-89
2021/01/02 03:08:58;;;;;;;26.83;19.27;;;3.50;92.10;;;;;;5122537;28;20190;-89
2021/01/02 03:11:25;;;;;;;25.00;18.03;;;3.50;93.40;;;;;;5123019;28;20235;-89
2021/01/02 03:13:52;;;;;;;26.87;20.07;;;3.50;92.80;;;;;;5123384;28;20649;-89
2021/01/02 03:16:21;;;;;;;27.63;19.33;;;3.50;92.80;;;;;;5104747;28;20179;-89
2021/01/02 03:18:47;;;;;;;27.30;20.13;;;3.60;92.50;;;;;;5104181;28;20685;-89
2021/01/02 03:21:13;;;;;;;29.10;19.97;;;3.60;92.20;;;;;;5122693;28;20262;-89
2021/01/02 03:23:46;;;;;;;26.27;19.80;;;3.50;92.80;;;;;;5104564;28;20258;-89
2021/01/02 03:26:13;;;;;;;25.83;18.80;;;3.50;92.90;;;;;;5122860;28;20188;-89
2021/01/02 03:28:38;;;;;;;30.77;21.50;;;3.60;92.70;;;;;;5104026;28;20198;-89
2021/01/02 03:31:04;;;;;;;25.53;19.10;;;3.60;92.30;;;;;;5103504;28;20223;-89
2021/01/02 03:33:30;;;;;;;26.60;19.40;;;3.60;92.50;;;;;;5123505;28;20182;-89
2021/01/02 03:36:00;;;;;;;27.13;20.40;;;3.60;92.00;;;;;;5120940;28;20253;-89
2021/01/02 03:38:32;;;;;;;27.93;20.20;;;3.60;92.00;;;;;;5121825;28;20198;-89
2021/01/02 03:40:58;;;;;;;28.53;20.63;;;3.70;91.80;;;;;;5121858;28;20186;-89
2021/01/02 03:43:24;;;;;;;24.33;18.77;;;3.60;91.40;;;;;;5121841;28;20201;-89
2021/01/02 03:45:51;;;;;;;25.83;19.97;;;3.60;91.70;;;;;;5104290;28;20206;-90
2021/01/02 03:48:16;;;;;;;27.80;20.10;;;3.50;92.20;;;;;;5123300;28;20179;-89
2021/01/02 03:50:42;;;;;;;29.47;21.20;;;3.50;92.60;;;;;;5123921;28;20187;-89
2021/01/02 03:53:08;;;;;;;27.37;20.13;;;3.50;93.10;;;;;;5123645;28;20182;-89
2021/01/02 03:55:34;;;;;;;24.23;19.10;;;3.50;92.60;;;;;;5124572;28;20195;-89
2021/01/02 03:58:03;;;;;;;25.13;19.17;;;3.50;92.90;;;;;;5106719;28;20196;-89
2021/01/02 04:00:28;;;;;;;25.20;19.63;;;3.50;92.70;;;;;;5124921;28;20185;-90
2021/01/02 04:02:54;;;;;;;22.93;18.50;;;3.40;92.90;;;;;;5110486;28;20182;-90
2021/01/02 04:05:19;;;;;;;25.57;19.43;;;3.40;93.40;;;;;;5093750;28;20209;-89
2021/01/02 04:07:45;;;;;;;25.47;18.83;;;3.40;93.20;;;;;;5128720;28;20178;-90
2021/01/02 04:10:12;;;;;;;24.97;19.40;;;3.40;93.40;;;;;;5110784;28;20204;-89
2021/01/02 04:12:37;;;;;;;23.83;19.00;;;3.40;93.40;;;;;;5129080;28;20167;-90
2021/01/02 04:15:04;;;;;;;23.53;18.77;;;3.30;93.80;;;;;;5108677;28;20192;-90
2021/01/02 04:17:29;;;;;;;23.90;18.20;;;3.30;94.10;;;;;;5089773;28;20187;-90
2021/01/02 04:19:55;;;;;;;26.73;18.97;;;3.30;94.20;;;;;;5089466;28;20209;-90
2021/01/02 04:22:21;;;;;;;25.97;18.63;;;3.20;94.00;;;;;;5090071;28;20179;-90
2021/01/02 04:24:49;;;;;;;28.47;19.50;;;3.20;94.30;;;;;;5056476;28;20228;-90
2021/01/02 04:27:15;;;;;;;26.43;18.87;;;3.20;94.60;;;;;;5089752;28;20182;-90
2021/01/02 04:29:41;;;;;;;25.80;18.23;;;3.20;94.80;;;;;;5109174;28;20218;-90
2021/01/02 04:32:07;;;;;;;27.43;19.03;;;3.10;95.30;;;;;;5109757;28;20193;-90
2021/01/02 04:34:42;;;;;;;23.70;18.47;;;3.20;95.10;;;;;;5110331;28;20182;-90
2021/01/02 04:37:16;;;;;;;25.80;19.67;;;3.20;95.30;;;;;;5127743;28;20158;-90
2021/01/02 04:39:42;;;;;;;24.13;18.57;;;3.20;94.80;;;;;;5092953;28;20197;-90
2021/01/02 04:42:08;;;;;;;25.50;19.53;;;3.20;95.20;;;;;;5128235;28;20182;-90
2021/01/02 04:44:35;;;;;;;24.40;18.70;;;3.20;95.10;;;;;;5128140;28;20243;-90
2021/01/02 04:48:01;;;;;;;25.67;18.13;;;3.30;94.80;;;;;;5128270;28;20182;-90
2021/01/02 04:50:28;;;;;;;26.07;19.10;;;3.30;94.40;;;;;;5097747;28;20205;-90
2021/01/02 04:52:58;;;;;;;24.47;17.97;;;3.20;94.60;;;;;;5127699;28;20177;-90
2021/01/02 04:55:27;;;;;;;25.43;18.03;;;3.20;95.10;;;;;;5109466;28;20205;-89
2021/01/02 04:57:55;;;;;;;24.63;18.20;;;3.20;95.00;;;;;;5109279;28;20182;-90
2021/01/02 05:00:24;;;;;;;25.10;19.47;;;3.30;95.00;;;;;;5127414;28;20202;-89
2021/01/02 05:02:52;;;;;;;25.43;19.73;;;3.20;94.60;;;;;;5127687;28;20339;-89
2021/01/02 05:05:18;;;;;;;27.13;19.73;;;3.30;94.70;;;;;;5108846;28;20202;-89
2021/01/02 05:07:44;;;;;;;24.97;19.03;;;3.30;94.00;;;;;;5127417;28;20189;-90
2021/01/02 05:10:10;;;;;;;25.27;18.67;;;3.30;94.00;;;;;;5101948;28;20268;-90
2021/01/02 05:12:36;;;;;;;25.40;19.10;;;3.30;94.30;;;;;;5088952;28;20269;-89
2021/01/02 05:15:13;;;;;;;27.27;18.90;;;3.30;94.80;;;;;;5116103;28;20178;-90
2021/01/02 05:17:43;;;;;;;24.77;20.77;;;3.30;94.20;;;;;;5095264;28;20193;-90
2021/01/02 05:20:40;;;;;;;26.07;20.00;;;3.30;94.60;;;;;;5104300;28;20198;-90
2021/01/02 05:23:13;;;;;;;26.37;19.27;;;3.30;94.40;;;;;;5074529;28;20202;-90
2021/01/02 05:25:39;;;;;;;26.27;19.63;;;3.40;93.60;;;;;;5107693;28;20887;-90
2021/01/02 05:28:15;;;;;;;26.73;19.93;;;3.40;93.70;;;;;;5108184;28;20193;-91
2021/01/02 05:30:40;;;;;;;31.17;21.10;;;3.40;93.50;;;;;;5110187;28;20190;-90
2021/01/02 05:33:11;;;;;;;25.73;19.83;;;3.50;92.80;;;;;;5109018;28;20201;-89
2021/01/02 05:35:47;;;;;;;25.50;19.00;;;3.40;93.80;;;;;;5127070;28;20185;-90
2021/01/02 05:38:18;;;;;;;24.37;18.17;;;3.40;93.30;;;;;;5126672;28;20239;-90
2021/01/02 05:41:04;;;;;;;26.93;18.93;;;3.30;93.80;;;;;;5127003;28;20540;-90
2021/01/02 05:43:29;;;;;;;23.93;17.73;;;3.40;93.10;;;;;;5126301;28;20194;-90
2021/01/02 05:45:55;;;;;;;25.67;19.53;;;3.40;93.10;;;;;;5126457;28;20301;-91
2021/01/02 05:48:26;;;;;;;26.27;19.70;;;3.40;93.40;;;;;;5107654;28;20202;-92
2021/01/02 05:50:58;;;;;;;26.17;19.03;;;3.40;93.30;;;;;;5108208;28;20267;-90
2021/01/02 05:53:32;;;;;;;23.43;18.33;;;3.40;93.10;;;;;;5092003;28;20191;-90
2021/01/02 05:56:07;;;;;;;22.33;18.47;;;3.40;93.20;;;;;;5088309;28;20166;-90
2021/01/02 05:58:44;;;;;;;24.17;18.67;;;3.40;93.30;;;;;;5106295;28;20270;-90
2021/01/02 06:01:21;;;;;;;20.70;17.10;;;3.40;93.50;;;;;;5106041;28;20625;-90
2021/01/02 06:03:52;;;;;;;21.03;17.27;;;3.40;93.20;;;;;;5120410;28;20202;-90
2021/01/02 06:06:19;;;;;;;22.93;17.53;;;3.40;93.70;;;;;;5107882;28;20185;-90
2021/01/02 06:08:50;;;;;;;23.90;17.47;;;3.50;93.00;;;;;;5125750;28;20220;-90
2021/01/02 06:11:20;;;;;;;21.07;17.40;;;3.40;93.40;;;;;;5125246;28;20177;-90
2021/01/02 06:13:49;;;;;;;21.57;16.50;;;3.40;93.60;;;;;;5120490;28;20182;-90
2021/01/02 06:16:15;;;;;;;23.00;17.90;;;3.30;93.30;;;;;;5087687;28;20719;-90
2021/01/02 06:18:45;;;;;;;23.13;18.07;;;3.30;94.00;;;;;;5087372;28;20199;-89
2021/01/02 06:21:14;;;;;;;23.00;17.00;;;3.20;94.30;;;;;;5104294;28;20175;-89
2021/01/02 06:23:42;;;;;;;25.07;18.53;;;3.20;94.80;;;;;;5104839;28;20202;-90
2021/01/02 06:26:16;;;;;;;24.67;18.37;;;3.20;95.10;;;;;;5088053;28;20188;-90
2021/01/02 06:28:43;;;;;;;21.60;17.27;;;3.20;95.20;;;;;;5103651;28;20286;-90
2021/01/02 06:31:14;;;;;;;20.87;17.70;;;3.10;95.80;;;;;;5105518;28;20175;-90
2021/01/02 06:33:48;;;;;;;21.13;17.73;;;3.10;95.80;;;;;;5104808;28;20165;-90
2021/01/02 06:36:30;;;;;;;24.70;18.30;;;3.20;95.10;;;;;;5090462;28;20226;-90
2021/01/02 06:39:34;;;;;;;24.73;17.87;;;3.20;94.60;;;;;;5104559;28;20704;-89
2021/01/02 06:42:20;;;;;;;21.77;16.47;;;3.20;94.60;;;;;;5089234;28;20182;-89
2021/01/02 06:44:46;;;;;;;21.87;17.03;;;3.20;94.80;;;;;;5104771;28;20202;-90
2021/01/02 06:47:35;;;;;;;18.40;14.93;;;3.10;95.10;;;;;;5105711;28;20664;-89
2021/01/02 06:50:16;;;;;;;20.63;14.87;;;3.20;95.10;;;;;;5085383;28;20226;-89
2021/01/02 06:52:42;;;;;;;22.97;16.80;;;3.10;95.40;;;;;;5124448;28;20166;-89
2021/01/02 06:55:18;;;;;;;22.50;16.67;;;3.10;95.30;;;;;;5090294;28;20186;-90
2021/01/02 06:57:44;;;;;;;18.73;15.03;;;3.20;94.80;;;;;;5107235;28;20190;-90
2021/01/02 07:00:20;;;;;;;23.57;18.63;;;3.10;94.70;;;;;;5100866;28;20234;-91
2021/01/02 07:02:46;;;;;;;19.93;16.03;;;3.20;94.80;;;;;;5086921;28;20204;-89
2021/01/02 07:05:39;;;;;;;22.50;17.37;;;3.20;94.40;;;;;;5086133;28;20198;-89
2021/01/02 07:08:04;;;;;;;19.73;16.57;;;3.00;94.40;;;;;;5086686;28;20178;-89
2021/01/02 07:10:30;;;;;;;19.27;15.83;;;3.00;95.10;;;;;;5069987;28;20180;-90
2021/01/02 07:13:09;;;;;;;18.07;15.20;;;3.00;95.40;;;;;;5069304;28;20627;-90
2021/01/02 07:15:34;;;;;;;22.13;16.43;;;2.90;96.00;;;;;;5071477;28;20199;-90
2021/01/02 07:18:25;;;;;;;21.43;16.73;;;2.90;96.00;;;;;;5087530;28;20198;-90
2021/01/02 07:20:51;;;;;;;21.67;16.57;;;3.00;95.20;;;;;;5087556;28;20248;-89
2021/01/02 07:23:27;;;;;;;21.73;16.97;;;2.90;95.40;;;;;;5070594;28;20179;-89
2021/01/02 07:26:22;;;;;;;19.97;15.97;;;2.90;95.70;;;;;;5098653;28;20243;-89
2021/01/02 07:28:53;;;;;;;21.70;16.03;;;2.90;96.30;;;;;;5126209;28;20699;-90
2021/01/02 07:31:28;;;;;;;21.30;15.47;;;3.00;95.90;;;;;;5087721;28;20182;-91
2021/01/02 07:33:54;;;;;;;20.77;16.33;;;3.00;96.30;;;;;;5088793;28;20451;-91
2021/01/02 07:36:26;;;;;;;20.17;15.97;;;3.10;94.70;;;;;;5089553;28;20179;-89
2021/01/02 07:38:51;;;;;;;19.03;16.23;;;3.10;95.50;;;;;;5113154;28;20210;-90
2021/01/02 07:41:19;;;;;;;19.90;15.83;;;3.00;95.20;;;;;;5131629;28;20185;-91
2021/01/02 07:43:45;;;;;;;21.07;16.27;;;3.10;95.10;;;;;;5127814;28;20178;-91
2021/01/02 07:46:10;;;;;;;17.30;15.13;;;3.10;94.10;;;;;;5112038;28;20215;-90
2021/01/02 07:48:36;;;;;;;19.77;16.10;;;3.10;94.40;;;;;;5123139;28;20214;-91
2021/01/02 07:51:14;;;;;;;20.57;16.40;;;3.10;93.70;;;;;;5107291;28;20178;-90
2021/01/02 07:53:40;;;;;;;19.87;16.07;;;3.10;94.50;;;;;;5111953;28;20678;-91
2021/01/02 07:56:06;;;;;;;18.17;16.27;;;3.10;94.60;;;;;;5130627;28;20183;-91
2021/01/02 07:58:31;;;;;;;19.93;16.23;;;3.10;94.50;;;;;;5112970;28;20226;-91
2021/01/02 08:01:08;;;;;;;21.13;16.37;;;3.00;94.50;;;;;;5096981;28;20187;-90
2021/01/02 08:03:34;;;;;;;21.13;16.33;;;3.10;94.90;;;;;;5109472;28;20194;-91
2021/01/02 08:06:08;;;;;;;21.67;17.07;;;3.20;95.70;;;;;;5109497;28;20206;-90
2021/01/02 08:08:33;;;;;;;19.80;17.27;;;3.30;94.30;;;;;;5110455;28;20270;-91
2021/01/02 08:10:59;;;;;;;21.40;17.63;;;3.20;93.30;;;;;;5110336;28;20183;-91
2021/01/02 08:13:25;;;;;;;19.43;16.20;;;3.20;93.50;;;;;;5109365;28;20175;-91
2021/01/02 08:15:53;;;;;;;20.23;17.80;;;3.30;94.20;;;;;;5073960;28;20191;-91
2021/01/02 08:18:18;;;;;;;25.73;22.40;;;3.20;93.90;;;;;;5093880;28;20182;-91
2021/01/02 08:20:44;;;;;;;34.47;28.00;;;3.30;93.40;;;;;;5070514;28;20668;-91
2021/01/02 08:23:13;;;;;;;30.13;24.80;;;3.20;92.80;;;;;;5094542;28;20197;-90
2021/01/02 08:25:40;;;;;;;25.17;21.20;;;3.20;93.50;;;;;;5120845;28;20195;-89
2021/01/02 08:28:06;;;;;;;21.70;17.93;;;3.20;93.20;;;;;;5107287;28;20191;-90
2021/01/02 08:30:32;;;;;;;24.90;20.03;;;3.20;92.80;;;;;;5097558;28;20198;-89
2021/01/02 08:32:59;;;;;;;22.70;20.27;;;3.10;93.60;;;;;;5123470;28;20179;-90
2021/01/02 08:35:33;;;;;;;21.03;18.73;;;3.10;94.50;;;;;;5094487;28;20201;-90
2021/01/02 08:38:07;;;;;;;21.17;17.53;;;3.10;94.40;;;;;;5111113;28;20176;-90
2021/01/02 08:40:51;;;;;;;21.03;17.83;;;3.10;94.70;;;;;;5129494;28;20189;-90
2021/01/02 08:43:24;;;;;;;19.97;16.70;;;3.10;94.20;;;;;;5089790;28;20219;-89
2021/01/02 08:46:02;;;;;;;18.87;16.80;;;3.10;94.60;;;;;;5102719;28;20199;-90
2021/01/02 08:48:28;;;;;;;22.00;18.90;;;3.20;95.20;;;;;;5090140;28;20214;-90
2021/01/02 08:50:56;;;;;;;20.13;17.00;;;3.20;93.90;;;;;;5090338;28;20221;-90
2021/01/02 08:53:31;;;;;;;23.40;19.17;;;3.10;93.30;;;;;;5091260;28;20198;-89
2021/01/02 08:56:24;;;;;;;23.83;19.03;;;3.10;94.10;;;;;;5101384;28;20185;-89
2021/01/02 08:58:50;;;;;;;20.60;18.13;;;3.10;94.40;;;;;;5106154;28;20293;-89
2021/01/02 09:01:17;;;;;;;20.07;17.73;;;3.20;94.00;;;;;;5128245;28;20218;-90
2021/01/02 09:03:44;;;;;;;21.27;18.03;;;3.20;94.50;;;;;;5108967;28;20197;-89
2021/01/02 09:06:27;;;;;;;23.40;19.13;;;3.30;94.00;;;;;;5084213;28;20243;-90
2021/01/02 09:09:00;;;;;;;119.50;72.43;;;3.30;93.50;;;;;;5109123;28;20209;-90
2021/01/02 09:11:26;;;;;;;147.07;92.60;;;3.30;93.10;;;;;;5102629;28;20179;-90
2021/01/02 09:14:07;;;;;;;66.03;46.07;;;3.30;93.60;;;;;;5093820;28;20182;-89
2021/01/02 09:16:33;;;;;;;48.63;33.37;;;3.20;93.70;;;;;;5120329;28;20766;-90
2021/01/02 09:18:59;;;;;;;35.37;25.23;;;3.20;93.50;;;;;;5109377;28;20210;-90
2021/01/02 09:21:26;;;;;;;24.87;20.10;;;3.20;95.00;;;;;;5127296;28;20243;-90
2021/01/02 09:23:53;;;;;;;93.30;63.50;;;3.20;93.80;;;;;;5107216;28;20186;-89
2021/01/02 09:26:46;;;;;;;26.00;21.37;;;3.20;93.70;;;;;;5093115;28;20175;-90
2021/01/02 09:29:13;;;;;;;22.53;18.30;;;3.20;94.50;;;;;;5123821;28;20277;-90
2021/01/02 09:31:39;;;;;;;32.70;26.67;;;3.30;94.50;;;;;;5117943;28;20598;-89
2021/01/02 09:34:05;;;;;;;23.87;20.70;;;3.40;94.30;;;;;;5114972;27;20177;-89
2021/01/02 09:36:31;;;;;;;25.73;20.17;;;3.40;93.30;;;;;;5114426;28;20721;-89
2021/01/02 09:38:57;;;;;;;18.00;16.10;;;3.40;93.10;;;;;;5104459;28;20210;-90
2021/01/02 09:41:25;;;;;;;21.57;17.30;;;3.40;93.40;;;;;;5094370;28;20190;-91
2021/01/02 09:43:54;;;;;;;32.43;26.80;;;3.40;92.80;;;;;;5088815;27;20183;-90
2021/01/02 09:46:21;;;;;;;29.37;23.63;;;3.30;92.70;;;;;;5107383;28;20638;-90
2021/01/02 09:48:49;;;;;;;19.80;16.17;;;3.30;93.30;;;;;;5123908;27;20213;-90
2021/01/02 09:51:16;;;;;;;42.73;32.47;;;3.20;94.10;;;;;;5117775;28;20193;-90
2021/01/02 09:53:42;;;;;;;35.07;31.67;;;3.30;94.70;;;;;;5120072;27;20181;-89
2021/01/02 09:56:07;;;;;;;18.80;16.63;;;3.30;93.00;;;;;;5127527;27;20182;-90
2021/01/02 09:58:33;;;;;;;19.97;17.27;;;3.30;93.40;;;;;;5115944;28;20213;-90
2021/01/02 10:00:59;;;;;;;19.57;17.43;;;3.40;94.50;;;;;;5088907;27;20189;-90
2021/01/02 10:03:25;;;;;;;19.03;17.03;;;3.50;94.00;;;;;;5107452;28;20190;-90
2021/01/02 10:05:51;;;;;;;18.87;15.97;;;3.60;92.10;;;;;;5101604;28;20218;-90
2021/01/02 10:08:17;;;;;;;22.13;19.10;;;3.60;92.00;;;;;;5127531;28;20166;-90
2021/01/02 10:10:42;;;;;;;16.63;14.63;;;3.60;91.80;;;;;;5109260;28;20198;-90
2021/01/02 10:13:08;;;;;;;18.20;15.23;;;3.60;91.30;;;;;;5102395;28;20202;-90
2021/01/02 10:15:34;;;;;;;16.83;14.83;;;3.60;91.80;;;;;;5103653;27;20210;-90
2021/01/02 10:18:00;;;;;;;18.23;14.77;;;3.60;91.10;;;;;;5111241;28;20178;-90
2021/01/02 10:20:25;;;;;;;17.63;15.47;;;3.60;91.20;;;;;;5128190;28;20205;-90
2021/01/02 10:22:51;;;;;;;18.03;16.13;;;3.60;92.10;;;;;;5109216;28;20230;-90
2021/01/02 10:25:17;;;;;;;17.77;15.13;;;3.60;92.10;;;;;;5125366;28;20229;-90
2021/01/02 10:27:43;;;;;;;18.00;15.60;;;3.70;90.50;;;;;;5108002;28;20223;-89
2021/01/02 10:30:12;;;;;;;21.97;16.87;;;3.60;90.90;;;;;;5071998;28;20317;-89
2021/01/02 10:32:37;;;;;;;22.87;17.53;;;3.60;91.70;;;;;;5119767;27;20190;-90
2021/01/02 10:35:06;;;;;;;18.30;16.23;;;3.60;91.90;;;;;;5118512;28;20190;-89
2021/01/02 10:37:31;;;;;;;16.33;14.50;;;3.70;91.90;;;;;;5109470;28;20183;-90
2021/01/02 10:39:57;;;;;;;20.70;17.57;;;3.80;90.70;;;;;;5106278;28;20224;-90
2021/01/02 10:42:29;;;;;;;23.30;20.37;;;3.70;91.60;;;;;;5115998;27;20181;-89
2021/01/02 10:44:55;;;;;;;24.20;19.57;;;3.80;90.50;;;;;;5117618;27;20205;-90
2021/01/02 10:47:26;;;;;;;25.70;22.47;;;3.80;91.20;;;;;;5108105;28;20220;-89
2021/01/02 10:49:53;;;;;;;30.70;24.43;;;3.80;90.30;;;;;;5117425;28;20207;-90
2021/01/02 10:52:21;;;;;;;21.57;19.23;;;3.90;90.00;;;;;;5086918;28;20179;-90
2021/01/02 10:54:48;;;;;;;18.57;15.37;;;3.90;90.30;;;;;;5117565;28;20182;-91
2021/01/02 10:57:14;;;;;;;18.27;15.87;;;3.90;89.30;;;;;;5104857;28;20206;-89
2021/01/02 10:59:45;;;;;;;18.30;16.40;;;3.90;89.20;;;;;;5112636;28;20211;-90
2021/01/02 11:02:11;;;;;;;17.30;15.33;;;3.90;89.50;;;;;;5101711;28;20205;-90
2021/01/02 11:04:37;;;;;;;20.23;16.83;;;3.90;89.40;;;;;;5105743;28;20199;-90
2021/01/02 11:07:04;;;;;;;19.97;17.13;;;4.00;89.10;;;;;;5076292;28;20187;-90
2021/01/02 11:09:30;;;;;;;16.70;14.80;;;4.00;88.40;;;;;;5115465;28;20245;-90
2021/01/02 11:11:56;;;;;;;18.33;15.63;;;4.00;88.40;;;;;;5107176;28;20183;-90
2021/01/02 11:14:22;;;;;;;16.00;14.30;;;4.00;88.80;;;;;;5120517;28;20186;-90
2021/01/02 11:16:49;;;;;;;17.03;15.23;;;4.00;88.70;;;;;;5105387;28;20676;-90
2021/01/02 11:19:26;;;;;;;17.03;15.23;;;4.00;89.00;;;;;;5105919;28;20214;-90
2021/01/02 11:21:54;;;;;;;19.10;16.57;;;4.00;88.30;;;;;;5104342;28;20195;-90
2021/01/02 11:24:22;;;;;;;18.20;15.47;;;3.90;87.90;;;;;;5102985;28;20286;-90
2021/01/02 11:26:50;;;;;;;17.50;14.97;;;3.90;88.40;;;;;;5102897;28;20183;-90
2021/01/02 11:29:19;;;;;;;17.37;14.90;;;4.00;88.60;;;;;;5103324;28;20237;-89
2021/01/02 11:31:45;;;;;;;15.03;13.43;;;4.00;87.60;;;;;;5124127;28;20174;-90
2021/01/02 11:34:12;;;;;;;17.73;15.83;;;3.90;88.50;;;;;;5111920;28;20373;-90
2021/01/02 11:36:38;;;;;;;41.80;33.93;;;3.90;88.20;;;;;;5101912;28;20190;-89
2021/01/02 11:39:06;;;;;;;36.13;26.03;;;4.10;88.80;;;;;;5085319;28;20207;-90
2021/01/02 11:41:34;;;;;;;37.97;30.07;;;4.20;87.30;;;;;;5101481;28;20195;-89
2021/01/02 11:44:01;;;;;;;17.40;15.60;;;4.30;85.90;;;;;;5101406;28;20264;-90
2021/01/02 11:46:31;;;;;;;20.27;17.70;;;4.30;85.60;;;;;;5103130;28;20182;-89
2021/01/02 11:48:57;;;;;;;17.27;15.37;;;4.20;85.40;;;;;;5104771;28;20225;-89
2021/01/02 11:51:24;;;;;;;14.63;13.00;;;4.20;85.10;;;;;;5123778;28;20190;-89
2021/01/02 11:53:50;;;;;;;15.17;12.83;;;4.10;84.60;;;;;;5104487;28;20178;-89
2021/01/02 11:56:22;;;;;;;13.20;11.80;;;4.10;84.80;;;;;;5106536;28;20179;-90
2021/01/02 11:59:00;;;;;;;15.13;11.43;;;4.00;83.60;;;;;;5102838;28;20201;-89
2021/01/02 12:01:36;;;;;;;12.70;11.40;;;4.00;84.30;;;;;;5112399;28;20194;-89
2021/01/02 12:04:02;;;;;;;14.37;12.57;;;4.00;84.90;;;;;;5105509;28;20213;-89
2021/01/02 12:06:29;;;;;;;13.43;12.03;;;4.00;85.10;;;;;;5083909;28;20187;-89
2021/01/02 12:08:56;;;;;;;14.43;12.87;;;4.10;83.60;;;;;;5107336;28;20206;-88
2021/01/02 12:11:34;;;;;;;12.47;11.17;;;4.10;82.60;;;;;;5126545;28;20175;-89
2021/01/02 12:14:00;;;;;;;11.97;10.77;;;4.10;83.40;;;;;;5090188;28;20214;-89
2021/01/02 12:16:41;;;;;;;12.47;11.17;;;4.10;83.00;;;;;;5090390;28;20206;-88
2021/01/02 12:19:10;;;;;;;17.10;14.40;;;4.20;82.40;;;;;;5093701;28;20236;-89
2021/01/02 12:21:36;;;;;;;14.20;12.80;;;4.30;83.00;;;;;;5107182;28;20178;-89
2021/01/02 12:24:03;;;;;;;13.20;11.73;;;4.20;81.80;;;;;;5130978;28;20206;-89
2021/01/02 12:26:28;;;;;;;12.93;11.63;;;4.30;81.30;;;;;;5119936;28;20206;-89
2021/01/02 12:28:54;;;;;;;11.77;10.57;;;4.40;81.50;;;;;;5093478;28;20652;-88
2021/01/02 12:31:24;;;;;;;12.43;10.00;;;4.40;80.50;;;;;;5108990;28;20178;-87
2021/01/02 12:33:50;;;;;;;11.57;10.37;;;4.40;81.10;;;;;;5097692;28;20301;-88
2021/01/02 12:36:18;;;;;;;12.00;10.80;;;4.40;79.30;;;;;;5106712;28;20182;-88
2021/01/02 12:38:44;;;;;;;12.63;10.03;;;4.40;79.00;;;;;;5126134;28;20213;-89
2021/01/02 12:41:14;;;;;;;12.30;11.10;;;4.40;79.00;;;;;;5129001;28;20250;-90
2021/01/02 12:43:44;;;;;;;13.23;11.93;;;4.30;79.70;;;;;;5126676;28;20174;-91
2021/01/02 12:46:11;;;;;;;11.20;10.10;;;4.30;79.60;;;;;;5109949;28;20212;-90
2021/01/02 12:48:38;;;;;;;10.93;9.83;;;4.20;79.10;;;;;;5109455;28;20570;-90
2021/01/02 12:51:06;;;;;;;13.53;10.87;;;4.20;79.20;;;;;;5093411;28;20197;-90
2021/01/02 12:53:31;;;;;;;10.40;9.40;;;4.30;78.50;;;;;;5109539;28;20190;-90
2021/01/02 12:55:57;;;;;;;11.43;10.30;;;4.30;79.00;;;;;;5087792;28;20199;-90